Time;durP1;ratioP1;P1;durP2;ratioP2;P2;SDS_P1;SDS_P2;PMS_P1;PMS_P2;Temp;Humidity;BMP_temperature;BMP_pressure;BME280_temperature;BME280_humidity;BME280_pressure;Samples;Min_cycle;Max_cycle;Signal;HPM_P1;HPM_P2
2021/12/08 00:01:53;;;;;;;3.90;3.70;;;;;;;4.65;100.00;99121.72;5236126;28;20031;-85
2021/12/08 00:04:24;;;;;;;3.67;3.47;;;;;;;4.67;100.00;99106.25;5252983;28;20024;-85
2021/12/08 00:06:54;;;;;;;3.38;3.17;;;;;;;4.64;100.00;99105.94;5253262;28;20029;-85
2021/12/08 00:09:35;;;;;;;3.15;3.05;;;;;;;4.82;100.00;99136.81;5253313;28;20423;-85
2021/12/08 00:14:55;;;;;;;4.43;4.03;;;;;;;4.80;100.00;99163.00;5253184;28;20024;-85
2021/12/08 00:17:25;;;;;;;4.28;3.45;;;;;;;4.63;100.00;99166.63;5240091;28;20174;-84
2021/12/08 00:20:00;;;;;;;3.85;3.65;;;;;;;4.88;100.00;99199.97;5258055;28;20039;-84
2021/12/08 00:22:31;;;;;;;3.28;3.17;;;;;;;4.15;100.00;99090.19;5258593;28;20081;-85
2021/12/08 00:25:02;;;;;;;3.45;3.20;;;;;;;4.91;100.00;99202.13;5239111;28;20020;-86
2021/12/08 00:27:33;;;;;;;3.42;3.22;;;;;;;5.04;100.00;99231.88;5238877;28;20103;-86
2021/12/08 00:30:04;;;;;;;4.55;4.15;;;;;;;5.07;100.00;99225.19;5238890;28;20122;-85
2021/12/08 00:32:36;;;;;;;11.57;3.88;;;;;;;4.73;100.00;99169.38;5255374;28;20031;-85
2021/12/08 00:35:07;;;;;;;3.53;3.38;;;;;;;4.74;100.00;99173.66;5255900;28;20016;-86
2021/12/08 00:37:38;;;;;;;3.38;3.20;;;;;;;4.67;100.00;99154.38;5238504;28;20039;-84
2021/12/08 00:40:12;;;;;;;10.23;3.58;;;;;;;4.90;100.00;99198.63;5239637;28;20020;-85
2021/12/08 00:42:45;;;;;;;3.67;3.53;;;;;;;5.15;100.00;99223.91;5257193;28;20063;-85
2021/12/08 00:45:17;;;;;;;5.65;3.38;;;;;;;5.00;100.00;99217.41;5238789;28;20108;-87
2021/12/08 00:47:49;;;;;;;3.67;3.40;;;;;;;5.14;100.00;99238.34;5256023;28;20027;-86
2021/12/08 00:50:24;;;;;;;3.17;3.08;;;;;;;5.22;100.00;99244.00;5238160;28;20034;-87
2021/12/08 00:52:56;;;;;;;3.33;3.17;;;;;;;4.79;100.00;99175.56;5235690;28;20017;-85
2021/12/08 00:55:27;;;;;;;3.80;3.50;;;;;;;5.10;100.00;99230.03;5254445;28;20028;-86
2021/12/08 00:57:59;;;;;;;4.25;3.95;;;;;;;4.81;100.00;99199.38;5236531;28;20032;-88
2021/12/08 01:00:38;;;;;;;3.38;3.17;;;;;;;5.29;100.00;99276.69;5238224;28;20051;-86
2021/12/08 01:03:10;;;;;;;2.90;2.80;;;;;;;5.31;100.00;99279.91;5238107;28;20044;-87
2021/12/08 01:05:50;;;;;;;4.40;4.10;;;;;;;5.32;100.00;99270.81;5240130;28;20063;-86
2021/12/08 01:08:23;;;;;;;2.83;2.72;;;;;;;5.19;100.00;99241.06;5240117;28;20119;-86
2021/12/08 01:10:57;;;;;;;4.53;4.28;;;;;;;5.34;100.00;99265.19;5238385;28;20031;-85
2021/12/08 01:13:28;;;;;;;3.72;2.92;;;;;;;4.82;100.00;99179.59;5256435;28;20028;-85
2021/12/08 01:15:59;;;;;;;3.25;3.05;;;;;;;5.36;100.00;99285.28;5241281;28;20032;-85
2021/12/08 01:18:30;;;;;;;5.50;4.05;;;;;;;5.38;100.00;99268.97;5258906;28;20174;-85
2021/12/08 01:21:08;;;;;;;4.28;4.00;;;;;;;5.24;100.00;99265.94;5256816;28;20060;-84
2021/12/08 01:23:39;;;;;;;4.72;4.35;;;;;;;5.03;100.00;99234.81;5238867;28;20433;-85
2021/12/08 01:26:10;;;;;;;3.70;3.38;;;;;;;5.13;100.00;99250.91;5257251;28;20020;-87
2021/12/08 01:28:41;;;;;;;7.63;3.72;;;;;;;4.90;100.00;99224.59;5256534;28;20021;-85
2021/12/08 01:31:12;;;;;;;4.78;4.38;;;;;;;5.02;100.00;99257.28;5235605;28;20115;-85
2021/12/08 01:33:42;;;;;;;4.80;4.38;;;;;;;5.02;100.00;99242.03;5235582;28;20449;-85
2021/12/08 01:36:13;;;;;;;8.52;4.32;;;;;;;4.68;100.00;99212.13;5237506;28;20111;-86
2021/12/08 01:38:43;;;;;;;10.23;5.40;;;;;;;4.64;100.00;99216.38;5236326;28;20486;-86
2021/12/08 01:41:15;;;;;;;4.18;3.90;;;;;;;4.96;100.00;99285.03;5254708;28;20071;-86
2021/12/08 01:46:34;;;;;;;8.35;4.40;;;;;;;4.66;100.00;99230.28;5255332;28;20504;-86
2021/12/08 01:49:05;;;;;;;8.00;4.32;;;;;;;4.30;100.00;99162.44;5237034;28;20028;-87
2021/12/08 01:51:36;;;;;;;5.10;4.65;;;;;;;4.55;100.00;99193.88;5237680;28;20492;-87
2021/12/08 01:54:06;;;;;;;8.85;4.63;;;;;;;4.86;100.00;99252.91;5238005;28;20028;-87
2021/12/08 01:56:37;;;;;;;5.68;5.00;;;;;;;4.56;100.00;99222.22;5254512;28;20043;-86
2021/12/08 01:59:09;;;;;;;3.88;3.75;;;;;;;4.73;100.00;99275.53;5252454;28;20082;-86
2021/12/08 02:01:43;;;;;;;4.78;4.47;;;;;;;4.38;100.00;99233.28;5237102;28;20025;-86
2021/12/08 02:04:15;;;;;;;8.50;4.25;;;;;;;4.53;100.00;99284.22;5237947;28;20020;-87
2021/12/08 02:06:47;;;;;;;6.30;5.22;;;;;;;4.72;100.00;99332.75;5239916;28;20048;-87
2021/12/08 02:09:17;;;;;;;4.60;4.30;;;;;;;4.46;100.00;99299.66;5238598;28;20100;-86
2021/12/08 02:11:52;;;;;;;8.50;5.57;;;;;;;4.28;100.00;99279.44;5254368;28;20044;-85
2021/12/08 02:14:23;;;;;;;17.48;5.50;;;;;;;4.59;100.00;99317.94;5255128;28;20087;-87
2021/12/08 02:16:55;;;;;;;3.58;3.38;;;;;;;4.72;100.00;99341.56;5240499;28;20028;-85
2021/12/08 02:19:25;;;;;;;4.95;4.65;;;;;;;4.04;100.00;99244.22;5244453;28;20021;-85
2021/12/08 02:21:56;;;;;;;6.18;4.68;;;;;;;4.14;100.00;99280.09;5252510;28;20103;-86
2021/12/08 02:24:26;;;;;;;12.95;5.95;;;;;;;4.33;100.00;99292.84;5269551;28;20020;-86
2021/12/08 02:26:58;;;;;;;3.58;3.28;;;;;;;4.48;100.00;99315.44;5251211;28;20023;-85
2021/12/08 02:29:46;;;;;;;8.73;5.50;;;;;;;4.75;100.00;99349.09;5258973;28;20017;-86
2021/12/08 02:48:56;;;;;;;8.50;3.67;;;;;;;4.77;100.00;99324.78;5253480;28;20051;-89
2021/12/08 02:51:27;;;;;;;3.70;3.50;;;;;;;4.98;100.00;99353.28;5234876;28;20025;-87
2021/12/08 02:53:58;;;;;;;11.80;4.47;;;;;;;4.73;100.00;99329.00;5234578;28;20031;-86
2021/12/08 02:56:30;;;;;;;4.10;3.80;;;;;;;4.36;100.00;99291.53;5234777;28;20024;-86
2021/12/08 02:59:02;;;;;;;4.43;4.15;;;;;;;4.41;100.00;99335.16;5235309;28;20040;-89
2021/12/08 03:01:36;;;;;;;5.55;3.67;;;;;;;4.32;100.00;99330.53;5237124;28;20243;-87
2021/12/08 03:04:08;;;;;;;6.72;4.20;;;;;;;4.56;100.00;99371.13;5235683;28;20021;-86
2021/12/08 03:06:38;;;;;;;5.10;4.43;;;;;;;4.18;100.00;99322.09;5252043;28;20088;-86
2021/12/08 03:09:09;;;;;;;3.92;3.70;;;;;;;4.25;100.00;99352.09;5234562;28;20048;-86
2021/12/08 03:11:40;;;;;;;4.05;3.67;;;;;;;4.06;100.00;99324.91;5235556;28;20029;-86
2021/12/08 03:14:13;;;;;;;4.65;4.05;;;;;;;3.96;100.00;99306.09;5253371;28;20033;-86
2021/12/08 03:16:48;;;;;;;9.38;5.50;;;;;;;3.95;100.00;99317.03;5235017;28;20059;-87
2021/12/08 03:19:22;;;;;;;6.38;4.32;;;;;;;4.17;100.00;99375.78;5237113;28;20048;-86
2021/12/08 03:21:54;;;;;;;4.75;3.95;;;;;;;4.10;100.00;99365.28;5239998;28;20498;-86
2021/12/08 03:24:31;;;;;;;4.38;3.97;;;;;;;4.01;100.00;99364.13;5241584;28;20020;-86
2021/12/08 03:27:17;;;;;;;4.55;4.15;;;;;;;3.87;100.00;99336.16;5239352;28;20066;-86
2021/12/08 03:30:00;;;;;;;4.93;3.63;;;;;;;3.98;100.00;99376.09;5256597;28;20035;-85
2021/12/08 03:32:36;;;;;;;4.93;4.50;;;;;;;3.84;100.00;99361.50;5239474;28;20280;-87
2021/12/08 03:35:11;;;;;;;4.43;4.13;;;;;;;3.89;100.00;99380.25;5240904;28;20033;-86
2021/12/08 03:37:46;;;;;;;3.65;3.33;;;;;;;3.89;100.00;99369.56;5259905;28;20094;-86
2021/12/08 03:40:19;;;;;;;5.63;4.50;;;;;;;3.72;100.00;99366.97;5260100;28;20024;-87
2021/12/08 03:42:53;;;;;;;6.15;3.28;;;;;;;3.57;100.00;99363.28;5242777;28;20024;-86
2021/12/08 03:45:30;;;;;;;4.75;4.32;;;;;;;3.75;100.00;99400.38;5260955;28;20021;-88
2021/12/08 03:48:06;;;;;;;3.53;3.25;;;;;;;3.65;100.00;99400.25;5241264;28;20083;-86
2021/12/08 03:50:41;;;;;;;3.42;3.33;;;;;;;3.75;100.00;99399.59;5244156;28;20031;-87
2021/12/08 03:53:15;;;;;;;4.63;2.88;;;;;;;3.69;100.00;99401.38;5261632;28;20028;-87
2021/12/08 03:55:48;;;;;;;4.75;3.63;;;;;;;3.44;100.00;99367.13;5243232;28;20628;-87
2021/12/08 03:58:19;;;;;;;10.18;3.35;;;;;;;3.12;100.00;99332.25;5242847;28;20356;-85
2021/12/08 04:00:51;;;;;;;4.32;4.03;;;;;;;2.99;100.00;99311.25;5237485;28;20098;-84
2021/12/08 04:03:26;;;;;;;5.88;4.28;;;;;;;3.71;100.00;99399.25;5255932;28;20327;-85
2021/12/08 04:05:59;;;;;;;10.32;4.63;;;;;;;3.65;100.00;99389.56;5256627;28;20036;-85
2021/12/08 04:08:41;;;;;;;5.00;4.57;;;;;;;3.58;100.00;99388.94;5234116;28;20053;-85
2021/12/08 04:11:12;;;;;;;4.97;4.47;;;;;;;3.64;100.00;99402.09;5234249;28;20547;-85
2021/12/08 04:13:48;;;;;;;14.55;4.10;;;;;;;3.66;100.00;99409.88;5233971;28;20028;-84
2021/12/08 04:16:24;;;;;;;6.10;4.30;;;;;;;3.47;100.00;99377.28;5233674;28;20023;-84
2021/12/08 04:18:57;;;;;;;4.20;3.45;;;;;;;3.83;100.00;99421.31;5232892;28;20510;-85
2021/12/08 04:21:28;;;;;;;8.05;4.57;;;;;;;3.88;100.00;99405.34;5232920;28;20024;-85
2021/12/08 04:24:00;;;;;;;10.45;3.88;;;;;;;3.76;100.00;99387.81;5252330;28;20537;-85
2021/12/08 04:26:36;;;;;;;4.38;4.03;;;;;;;3.81;100.00;99394.03;5251705;28;20406;-85
2021/12/08 04:29:08;;;;;;;5.30;4.35;;;;;;;3.64;100.00;99398.63;5251787;28;20032;-85
2021/12/08 04:31:41;;;;;;;5.50;4.22;;;;;;;3.48;100.00;99383.44;5251748;28;20506;-85
2021/12/08 04:34:18;;;;;;;4.72;4.28;;;;;;;3.59;100.00;99410.03;5231761;28;20119;-85
2021/12/08 04:36:51;;;;;;;9.02;3.65;;;;;;;3.60;100.00;99430.34;5237638;28;20016;-87
2021/12/08 04:39:33;;;;;;;5.63;4.70;;;;;;;3.27;100.00;99382.34;5240821;28;20017;-86
2021/12/08 04:42:09;;;;;;;4.78;4.40;;;;;;;2.91;100.00;99343.66;5240977;28;20021;-86
2021/12/08 04:44:52;;;;;;;6.32;4.15;;;;;;;3.42;100.00;99432.47;5239785;28;20017;-85
2021/12/08 04:47:33;;;;;;;5.18;4.20;;;;;;;2.97;100.00;99372.03;5240906;28;20028;-85
2021/12/08 05:04:07;;;;;;;5.43;4.97;;;;;;;3.07;100.00;99433.53;5261707;28;19908;-85
2021/12/08 05:09:25;;;;;;;4.20;4.05;;;;;;;2.87;100.00;99417.19;5260307;28;20078;-84
2021/12/08 05:12:01;;;;;;;4.85;4.43;;;;;;;2.51;100.00;99376.59;5243116;28;20031;-84
2021/12/08 05:14:46;;;;;;;6.32;4.25;;;;;;;2.71;100.00;99422.25;5240836;28;20030;-84
2021/12/08 05:17:25;;;;;;;9.98;5.45;;;;;;;2.91;100.00;99455.63;5242976;28;20295;-84
2021/12/08 05:19:59;;;;;;;6.90;4.30;;;;;;;2.92;100.00;99439.41;5259770;28;20107;-85
2021/12/08 05:22:37;;;;;;;4.30;3.72;;;;;;;2.93;100.00;99434.88;5242557;28;20379;-84
2021/12/08 05:25:11;;;;;;;9.32;4.85;;;;;;;2.91;100.00;99428.97;5240595;28;20044;-84
2021/12/08 05:27:46;;;;;;;4.78;3.80;;;;;;;3.26;100.00;99488.25;5260307;28;20024;-84
2021/12/08 05:30:27;;;;;;;9.75;5.05;;;;;;;3.17;100.00;99457.72;5241836;28;20024;-85
2021/12/08 05:32:58;;;;;;;4.13;3.78;;;;;;;3.31;100.00;99452.84;5258819;28;20033;-85
2021/12/08 05:35:29;;;;;;;7.85;5.47;;;;;;;3.17;100.00;99444.38;5259070;28;20084;-84
2021/12/08 05:38:00;;;;;;;9.88;4.03;;;;;;;2.45;100.00;99334.91;5260771;28;20052;-85
2021/12/08 05:40:39;;;;;;;4.93;4.53;;;;;;;2.60;100.00;99366.38;5243103;28;20031;-84
2021/12/08 05:43:10;;;;;;;5.97;4.00;;;;;;;2.66;100.00;99392.84;5239864;28;20024;-85
2021/12/08 05:45:41;;;;;;;14.82;4.22;;;;;;;2.95;100.00;99460.25;5238681;28;20051;-84
2021/12/08 05:48:13;;;;;;;8.88;5.32;;;;;;;3.04;100.00;99474.00;5241175;28;20016;-85
2021/12/08 05:50:53;;;;;;;5.25;3.97;;;;;;;2.70;100.00;99430.47;5243187;28;20025;-84
2021/12/08 05:53:25;;;;;;;3.75;3.65;;;;;;;2.84;100.00;99471.00;5260732;28;20144;-84
2021/12/08 05:55:56;;;;;;;4.88;4.47;;;;;;;2.79;100.00;99474.38;5243347;28;20028;-84
2021/12/08 05:58:28;;;;;;;13.93;4.57;;;;;;;2.39;100.00;99418.44;5241960;28;20063;-84
2021/12/08 06:01:12;;;;;;;8.30;4.80;;;;;;;2.84;100.00;99487.00;5260677;28;20028;-85
2021/12/08 06:03:44;;;;;;;6.82;4.75;;;;;;;2.72;100.00;99477.19;5243161;28;20209;-84
2021/12/08 06:06:16;;;;;;;3.97;3.75;;;;;;;2.66;100.00;99475.47;5261477;28;20383;-85
2021/12/08 06:08:48;;;;;;;4.55;3.95;;;;;;;2.09;100.00;99391.22;5242046;28;20107;-85
2021/12/08 06:11:18;;;;;;;5.40;3.85;;;;;;;2.51;100.00;99466.38;5242552;28;20039;-85
2021/12/08 06:13:49;;;;;;;11.05;5.50;;;;;;;2.27;100.00;99423.03;5242096;28;20426;-84
2021/12/08 06:16:21;;;;;;;6.10;3.58;;;;;;;1.98;100.00;99407.03;5243146;28;20024;-85
2021/12/08 06:18:52;;;;;;;4.47;3.95;;;;;;;2.55;100.00;99507.50;5262819;28;20020;-85
2021/12/08 06:21:26;;;;;;;4.28;3.92;;;;;;;2.40;100.00;99488.53;5244687;28;20031;-85
2021/12/08 06:23:57;;;;;;;4.85;4.43;;;;;;;2.15;100.00;99455.00;5259832;28;20482;-85
2021/12/08 06:26:29;;;;;;;6.07;4.28;;;;;;;2.00;100.00;99452.88;5259955;28;20024;-85
2021/12/08 06:29:01;;;;;;;7.97;4.45;;;;;;;2.31;100.00;99504.88;5262312;28;20527;-84
2021/12/08 06:31:33;;;;;;;14.32;4.95;;;;;;;2.17;100.00;99495.53;5242933;28;20028;-85
2021/12/08 06:34:05;;;;;;;6.43;4.50;;;;;;;2.40;100.00;99515.16;5244594;28;20065;-84
2021/12/08 06:36:44;;;;;;;4.63;4.35;;;;;;;2.30;100.00;99507.81;5262403;28;20031;-84
2021/12/08 06:39:27;;;;;;;7.50;5.10;;;;;;;1.86;100.00;99430.19;5245352;28;20028;-84
2021/12/08 06:42:03;;;;;;;4.43;4.18;;;;;;;2.21;100.00;99499.34;5242705;28;20055;-84
2021/12/08 06:44:40;;;;;;;6.45;4.95;;;;;;;2.26;100.00;99519.97;5239923;28;20016;-83
2021/12/08 06:47:16;;;;;;;5.13;4.13;;;;;;;1.73;100.00;99424.31;5257811;28;20021;-83
2021/12/08 06:49:49;;;;;;;4.25;3.85;;;;;;;2.09;100.00;99493.22;5257386;28;20024;-84
2021/12/08 06:52:23;;;;;;;9.45;3.70;;;;;;;1.97;100.00;99484.47;5240045;28;20027;-83
2021/12/08 06:55:15;;;;;;;5.57;4.90;;;;;;;1.98;100.00;99491.41;5239767;28;20034;-83
2021/12/08 06:57:56;;;;;;;4.72;4.32;;;;;;;2.15;100.00;99534.09;5243338;28;20284;-84
2021/12/08 07:00:50;;;;;;;4.15;3.85;;;;;;;1.99;100.00;99536.44;5245222;28;20523;-83
2021/12/08 07:03:34;;;;;;;5.90;3.53;;;;;;;2.06;100.00;99540.81;5244342;28;20070;-83
2021/12/08 07:06:28;;;;;;;4.80;3.85;;;;;;;2.17;100.00;99548.81;5244050;28;20076;-83
2021/12/08 07:08:59;;;;;;;11.93;4.28;;;;;;;2.20;100.00;99518.22;5244433;28;20028;-84
2021/12/08 07:11:29;;;;;;;9.70;3.85;;;;;;;2.61;100.00;99568.63;5244061;28;20520;-84
2021/12/08 07:14:00;;;;;;;7.35;4.45;;;;;;;2.46;100.00;99540.88;5244658;28;20036;-84
2021/12/08 07:16:35;;;;;;;9.98;4.72;;;;;;;2.55;100.00;99526.97;5262654;28;20063;-85
2021/12/08 07:19:13;;;;;;;8.98;5.03;;;;;;;2.83;100.00;99563.50;5244300;28;20025;-84
2021/12/08 07:21:45;;;;;;;10.15;4.63;;;;;;;3.11;100.00;99576.03;5262208;28;20059;-84
2021/12/08 07:24:20;;;;;;;10.35;3.50;;;;;;;3.09;100.00;99555.97;5243198;28;20035;-84
2021/12/08 07:26:54;;;;;;;6.93;3.83;;;;;;;3.25;100.00;99565.84;5262681;28;20031;-84
2021/12/08 07:29:28;;;;;;;9.90;4.03;;;;;;;2.66;100.00;99486.13;5261703;28;20031;-85
2021/12/08 07:32:03;;;;;;;11.50;4.63;;;;;;;3.28;100.00;99571.53;5261969;28;20060;-84
2021/12/08 07:34:35;;;;;;;7.93;4.22;;;;;;;3.44;100.00;99587.81;5242469;28;20125;-84
2021/12/08 07:37:23;;;;;;;4.40;3.22;;;;;;;3.48;100.00;99580.91;5244182;28;20029;-84
2021/12/08 07:40:07;;;;;;;7.78;4.93;;;;;;;3.66;100.00;99610.88;5245375;28;20572;-84
2021/12/08 07:42:44;;;;;;;6.90;3.58;;;;;;;3.68;100.00;99607.97;5243850;28;20553;-84
2021/12/08 07:45:20;;;;;;;11.07;6.07;;;;;;;3.59;100.00;99583.53;5244195;28;20020;-84
2021/12/08 07:47:53;;;;;;;4.70;4.00;;;;;;;3.14;100.00;99500.88;5244452;28;20020;-84
2021/12/08 07:50:38;;;;;;;4.53;4.22;;;;;;;3.75;100.00;99603.31;5252675;28;20471;-85
2021/12/08 07:53:10;;;;;;;7.93;4.03;;;;;;;3.53;100.00;99568.47;5231789;28;20028;-85
2021/12/08 07:55:46;;;;;;;3.92;3.63;;;;;;;3.42;100.00;99541.88;5249284;28;20368;-86
2021/12/08 07:58:20;;;;;;;4.00;3.70;;;;;;;3.77;100.00;99589.69;5236454;28;20047;-86
2021/12/08 08:00:58;;;;;;;4.57;4.22;;;;;;;3.80;100.00;99600.69;5230399;28;20093;-85
2021/12/08 08:03:31;;;;;;;4.72;4.43;;;;;;;3.56;100.00;99581.34;5230583;28;20035;-86
2021/12/08 08:06:07;;;;;;;4.88;4.55;;;;;;;3.55;100.00;99592.25;5230860;28;20050;-85
2021/12/08 08:08:37;;;;;;;5.05;4.13;;;;;;;3.22;100.00;99559.13;5248643;28;20040;-85
2021/12/08 08:11:27;;;;;;;4.30;4.20;;;;;;;3.10;100.00;99574.41;5230814;28;20394;-85
2021/12/08 08:13:58;;;;;;;6.78;5.70;;;;;;;3.29;100.00;99618.50;5230272;28;20020;-85
2021/12/08 08:16:33;;;;;;;7.30;5.00;;;;;;;3.36;100.00;99605.81;5230573;28;20078;-85
2021/12/08 08:19:11;;;;;;;6.45;4.70;;;;;;;3.38;100.00;99593.06;5248816;28;20028;-85
2021/12/08 08:21:46;;;;;;;6.38;4.53;;;;;;;2.86;100.00;99509.69;5248586;28;20024;-85
2021/12/08 08:24:18;;;;;;;10.20;4.38;;;;;;;3.39;100.00;99601.88;5230276;28;20034;-85
2021/12/08 08:26:52;;;;;;;9.40;4.47;;;;;;;3.63;100.00;99618.56;5230579;28;20481;-85
2021/12/08 08:29:22;;;;;;;6.43;4.75;;;;;;;3.70;100.00;99616.56;5248459;28;20029;-85
2021/12/08 08:32:00;;;;;;;4.40;3.75;;;;;;;3.70;100.00;99609.38;5230476;28;20031;-85
2021/12/08 08:34:35;;;;;;;5.57;5.05;;;;;;;3.43;100.00;99578.19;5230365;28;20525;-85
2021/12/08 08:37:10;;;;;;;4.75;4.15;;;;;;;3.55;100.00;99613.63;5230231;28;20021;-84
2021/12/08 08:39:47;;;;;;;7.50;4.07;;;;;;;3.69;100.00;99626.44;5248148;28;20056;-86
2021/12/08 08:42:25;;;;;;;4.93;4.63;;;;;;;3.61;100.00;99576.09;5230254;28;20111;-85
2021/12/08 08:45:13;;;;;;;5.45;4.95;;;;;;;4.03;100.00;99619.25;5229899;28;20123;-85
2021/12/08 08:47:55;;;;;;;6.35;4.38;;;;;;;4.18;100.00;99607.16;5230225;28;20016;-85
2021/12/08 08:50:49;;;;;;;5.05;4.45;;;;;;;4.25;100.00;99615.81;5230121;28;20021;-85
2021/12/08 08:53:24;;;;;;;11.35;4.95;;;;;;;4.13;100.00;99599.88;5229904;28;20023;-85
2021/12/08 08:56:04;;;;;;;5.05;3.55;;;;;;;4.30;100.00;99579.28;5229486;28;20084;-85
2021/12/08 08:58:37;;;;;;;4.35;3.90;;;;;;;3.86;100.00;99508.13;5248062;28;20428;-85
2021/12/08 09:01:13;;;;;;;6.82;4.25;;;;;;;4.62;100.00;99621.44;5247745;28;20033;-85
2021/12/08 09:03:49;;;;;;;5.30;4.65;;;;;;;4.21;100.00;99553.22;5248190;28;20031;-85
2021/12/08 09:06:28;;;;;;;5.07;4.78;;;;;;;3.91;100.00;99530.38;5230633;28;20082;-84
2021/12/08 09:09:03;;;;;;;4.27;4.07;;;;;;;4.31;100.00;99625.53;5248107;28;20028;-86
2021/12/08 09:11:39;;;;;;;3.50;3.40;;;;;;;4.29;100.00;99627.66;5229780;28;20028;-85
2021/12/08 09:14:21;;;;;;;4.85;4.53;;;;;;;4.22;100.00;99597.59;5230265;28;20028;-85
2021/12/08 09:17:02;;;;;;;3.67;3.50;;;;;;;4.21;100.00;99598.66;5230360;28;20020;-85
2021/12/08 09:19:57;;;;;;;3.22;3.08;;;;;;;4.03;100.00;99579.19;5230344;28;20028;-85
2021/12/08 09:22:36;;;;;;;3.72;3.45;;;;;;;4.08;100.00;99555.19;5233340;28;20530;-85
2021/12/08 09:25:12;;;;;;;4.50;4.13;;;;;;;4.12;100.00;99539.47;5233473;28;20021;-85
2021/12/08 09:27:47;;;;;;;3.70;3.50;;;;;;;4.45;100.00;99586.69;5236836;28;20470;-85
2021/12/08 09:30:25;;;;;;;4.75;4.55;;;;;;;4.58;100.00;99610.41;5262136;28;20028;-86
2021/12/08 09:33:10;;;;;;;6.10;5.32;;;;;;;4.70;100.00;99603.06;5236844;28;20120;-85
2021/12/08 09:35:57;;;;;;;6.15;5.03;;;;;;;4.97;100.00;99623.72;5232818;28;20089;-85
2021/12/08 09:38:27;;;;;;;5.05;4.78;;;;;;;5.05;100.00;99631.31;5230808;28;20107;-85
2021/12/08 09:41:13;;;;;;;4.40;4.10;;;;;;;4.88;100.00;99612.66;5227823;28;20138;-85
2021/12/08 09:43:59;;;;;;;4.85;4.55;;;;;;;4.98;100.00;99634.19;5248571;28;20054;-86
2021/12/08 09:46:40;;;;;;;5.03;4.25;;;;;;;4.82;100.00;99624.34;5230926;28;20031;-85
2021/12/08 09:49:12;;;;;;;4.85;4.07;;;;;;;4.72;100.00;99630.38;5233127;28;20105;-84
2021/12/08 09:51:45;;;;;;;7.97;3.95;;;;;;;4.25;100.00;99575.75;5234646;28;20027;-85
2021/12/08 09:54:16;;;;;;;3.63;3.42;;;;;;;4.55;100.00;99608.22;5233768;28;20020;-84
2021/12/08 09:56:49;;;;;;;3.90;3.40;;;;;;;3.86;100.00;99522.28;5253172;28;20066;-85
2021/12/08 09:59:22;;;;;;;4.55;4.10;;;;;;;4.50;100.00;99621.53;5234621;28;20032;-84
2021/12/08 10:01:56;;;;;;;7.10;4.43;;;;;;;3.95;100.00;99547.53;5235592;28;20049;-85
2021/12/08 10:04:26;;;;;;;5.07;3.42;;;;;;;3.81;100.00;99524.88;5232648;28;20021;-84
2021/12/08 10:07:00;;;;;;;8.88;4.72;;;;;;;4.52;100.00;99638.13;5234357;28;20048;-85
2021/12/08 10:09:30;;;;;;;6.38;3.47;;;;;;;3.96;100.00;99543.81;5233461;28;20032;-85
2021/12/08 10:12:02;;;;;;;5.07;4.00;;;;;;;3.88;100.00;99530.88;5232896;28;20456;-85
2021/12/08 10:14:33;;;;;;;6.00;3.88;;;;;;;3.98;100.00;99555.06;5252068;28;20111;-84
2021/12/08 10:17:03;;;;;;;4.72;4.22;;;;;;;4.24;100.00;99598.16;5233949;28;20063;-85
2021/12/08 10:19:34;;;;;;;7.00;4.57;;;;;;;4.49;100.00;99637.81;5254025;28;20111;-85
2021/12/08 10:22:19;;;;;;;5.22;4.65;;;;;;;4.48;100.00;99614.81;5234054;28;20050;-84
2021/12/08 10:25:24;;;;;;;4.47;4.18;;;;;;;4.81;100.00;99632.63;5233376;28;20020;-85
2021/12/08 10:28:17;;;;;;;6.40;4.70;;;;;;;4.63;100.00;99581.03;5158708;28;20042;-84
2021/12/08 10:30:52;;;;;;;4.57;4.38;;;;;;;4.91;100.00;99596.09;5261501;28;20028;-84
2021/12/08 10:34:14;;;;;;;4.20;3.42;;;;;;;5.14;100.00;99619.13;5245385;28;20031;-85
2021/12/08 10:36:49;;;;;;;4.13;3.70;;;;;;;5.21;100.00;99610.88;5265118;28;20029;-85
2021/12/08 10:39:28;;;;;;;2.65;2.60;;;;;;;5.17;100.00;99604.44;5249616;28;20371;-84
2021/12/08 10:41:59;;;;;;;3.75;3.55;;;;;;;5.14;100.00;99608.41;5249172;28;20506;-85
2021/12/08 10:45:09;;;;;;;3.65;3.42;;;;;;;5.11;100.00;99616.13;5248123;28;20036;-85
2021/12/08 10:47:47;;;;;;;6.00;4.47;;;;;;;5.13;100.00;99617.50;5240521;28;20052;-86
2021/12/08 10:56:14;;;;;;;3.78;3.47;;;;;;;5.43;100.00;99619.69;5249561;28;20119;-86
2021/12/08 10:58:50;;;;;;;6.75;4.38;;;;;;;5.22;100.00;99578.50;5230428;28;20074;-86
2021/12/08 11:01:24;;;;;;;3.17;2.97;;;;;;;5.46;100.00;99605.81;5230936;28;20464;-85
2021/12/08 11:04:04;;;;;;;9.70;3.63;;;;;;;5.40;100.00;99609.50;5230218;28;20031;-86
2021/12/08 11:06:37;;;;;;;4.60;4.30;;;;;;;5.14;100.00;99591.56;5229189;28;20437;-87
2021/12/08 11:09:16;;;;;;;3.30;3.10;;;;;;;5.24;100.00;99616.53;5230057;28;20055;-85
2021/12/08 11:11:48;;;;;;;8.23;3.47;;;;;;;5.19;100.00;99613.03;5231221;28;20032;-86
2021/12/08 11:14:18;;;;;;;8.00;3.55;;;;;;;4.95;100.00;99580.34;5250512;28;20048;-85
2021/12/08 11:16:49;;;;;;;3.55;3.25;;;;;;;4.69;100.00;99537.28;5232519;28;20025;-86
2021/12/08 11:19:22;;;;;;;3.75;3.22;;;;;;;5.19;100.00;99605.81;5228207;28;20425;-87
2021/12/08 11:21:56;;;;;;;3.53;3.15;;;;;;;5.19;100.00;99619.19;5244019;28;20024;-87
2021/12/08 11:24:42;;;;;;;6.55;4.07;;;;;;;5.23;100.00;99609.56;5245403;28;20256;-87
2021/12/08 11:27:28;;;;;;;7.40;3.85;;;;;;;5.25;100.00;99606.66;5228178;28;20090;-86
2021/12/08 11:30:11;;;;;;;5.03;2.65;;;;;;;5.25;100.00;99628.88;5231115;28;20020;-87
2021/12/08 11:32:43;;;;;;;3.17;2.90;;;;;;;5.09;100.00;99589.63;5231575;28;20036;-86
2021/12/08 11:35:21;;;;;;;4.72;3.08;;;;;;;4.97;100.00;99586.28;5248150;28;20031;-86
2021/12/08 11:37:59;;;;;;;3.88;3.55;;;;;;;5.31;100.00;99624.38;5230140;28;20068;-86
2021/12/08 11:40:34;;;;;;;3.13;2.92;;;;;;;5.36;100.00;99627.91;5247772;28;20024;-86
2021/12/08 11:43:15;;;;;;;2.92;2.75;;;;;;;5.54;100.00;99634.78;5231194;28;20024;-86
2021/12/08 11:45:46;;;;;;;3.55;3.33;;;;;;;5.53;100.00;99602.91;5232267;28;20017;-86
2021/12/08 11:48:25;;;;;;;3.33;3.13;;;;;;;5.99;100.00;99639.78;5254769;28;20021;-86
2021/12/08 11:51:08;;;;;;;2.33;2.23;;;;;;;6.04;100.00;99606.88;5255762;28;20021;-86
2021/12/08 11:53:39;;;;;;;3.70;3.22;;;;;;;6.29;100.00;99639.22;5237223;28;20494;-86
2021/12/08 11:56:34;;;;;;;3.65;3.30;;;;;;;6.28;100.00;99639.47;5238300;28;20028;-86
2021/12/08 11:59:07;;;;;;;14.05;3.75;;;;;;;6.16;100.00;99620.88;5256348;28;20063;-86
2021/12/08 12:01:38;;;;;;;3.70;3.28;;;;;;;6.39;100.00;99657.22;5255532;28;20402;-85
2021/12/08 12:04:10;;;;;;;3.63;3.42;;;;;;;6.36;100.00;99634.41;5236050;28;20021;-86
2021/12/08 12:06:40;;;;;;;9.32;3.60;;;;;;;6.23;100.00;99616.13;5235693;28;20020;-86
2021/12/08 12:09:11;;;;;;;3.78;3.47;;;;;;;6.49;100.00;99659.19;5234482;28;20569;-87
2021/12/08 12:11:42;;;;;;;15.85;4.10;;;;;;;6.51;100.00;99636.41;5233977;28;20020;-86
2021/12/08 12:14:12;;;;;;;9.80;4.03;;;;;;;6.09;100.00;99580.91;5234212;28;20020;-86
2021/12/08 12:16:44;;;;;;;6.53;3.55;;;;;;;6.33;100.00;99608.16;5252219;28;20689;-86
2021/12/08 12:19:17;;;;;;;6.20;2.80;;;;;;;6.27;100.00;99597.66;5234947;28;20036;-85
2021/12/08 12:22:11;;;;;;;4.15;3.75;;;;;;;6.65;100.00;99675.09;5254166;28;20116;-85
2021/12/08 12:24:53;;;;;;;4.55;4.15;;;;;;;6.56;100.00;99679.34;5254331;28;20111;-84
2021/12/08 12:27:37;;;;;;;4.32;3.92;;;;;;;6.09;100.00;99622.97;5255174;28;20024;-85
2021/12/08 12:30:37;;;;;;;3.42;3.22;;;;;;;6.38;100.00;99677.88;5254976;28;20363;-85
2021/12/08 12:33:22;;;;;;;3.40;2.42;;;;;;;6.08;100.00;99622.16;5253643;28;20078;-86
2021/12/08 12:35:55;;;;;;;4.13;3.83;;;;;;;6.16;100.00;99639.66;5255560;28;20059;-88
2021/12/08 12:38:37;;;;;;;4.43;3.05;;;;;;;6.70;100.00;99714.56;5237754;28;20024;-81
2021/12/08 12:41:24;;;;;;;6.60;4.32;;;;;;;6.66;100.00;99713.47;5254553;28;20045;-81
2021/12/08 12:44:25;;;;;;;6.63;3.58;;;;;;;6.51;100.00;99708.81;5254038;28;20032;-81
2021/12/08 12:47:05;;;;;;;5.15;3.70;;;;;;;6.56;100.00;99708.06;5208452;28;20032;-81
2021/12/08 12:49:40;;;;;;;;;;;;;;;6.58;100.00;99704.03;5254289;28;20517;-81
2021/12/08 12:52:14;;;;;;;3.83;3.53;;;;;;;6.34;100.00;99678.66;5236204;28;19908;-81
2021/12/08 12:54:46;;;;;;;4.88;3.13;;;;;;;6.41;100.00;99696.13;5250615;28;20031;-84
2021/12/08 12:57:16;;;;;;;3.20;2.60;;;;;;;6.42;100.00;99715.72;5251893;28;20029;-82
2021/12/08 12:59:53;;;;;;;4.70;4.30;;;;;;;6.35;100.00;99710.56;5251823;28;20031;-83